Saint-Brieuc-Armor Airport

Airport
ICAO code: 
LFRT
IATA Code: 
SBK
Summary
ICAO Region: 
EUR
Territory: 
Location: 
, Bretagne
Serving: 
St.-brieuc Armor
Elevation: 
453 ft
Coordinates: 
Aerial View: 
48° 32' 15.997" N, 2° 51' 16.002" W
Metar
Observation
LFRT 011530Z AUTO 27009KT 9999 FEW029/// SCT034/// BKN045/// ///TCU 07/05 Q1006
Station
Saint-Brieuc
Date/Time
2021-12-01 15:30:00
Wind direction
270°
Wind speed
09 kts
Lowest cloud amount
few clouds
Temperature
7°C
Dew point
5°C
Humidity
87%
QNH
1006 hPa
Weather condition
n/a

Runways

Designator Length Width Surface Rops
6/24 2200 45 ASP No/No
Airport map: 
Aerial View: 

SKYbrary Partners:

Safety knowledge contributed by: